createdAt,value
2022-12-01T00:00:08.279Z,99.90
2022-12-01T00:05:10.017Z,99.90
2022-12-01T00:10:27.320Z,99.90
2022-12-01T00:15:37.088Z,99.90
2022-12-01T00:20:40.220Z,99.90
2022-12-01T00:25:42.252Z,99.90
2022-12-01T00:30:44.044Z,99.90
2022-12-01T00:35:45.803Z,99.90
2022-12-01T00:40:47.576Z,99.90
2022-12-01T00:45:49.403Z,99.90
2022-12-01T00:50:55.072Z,99.90
2022-12-01T00:55:57.464Z,99.90
2022-12-01T01:01:01.542Z,99.90
2022-12-01T01:06:12.207Z,99.90
2022-12-01T01:11:14.004Z,99.90
2022-12-01T01:16:20.399Z,99.90
2022-12-01T01:21:22.680Z,99.90
2022-12-01T01:26:28.046Z,99.90
2022-12-01T01:31:30.980Z,99.90
2022-12-01T01:36:33.219Z,99.90
2022-12-01T01:41:34.993Z,99.90
2022-12-01T01:46:36.750Z,99.90
2022-12-01T01:51:52.532Z,99.90
2022-12-01T01:56:56.930Z,99.90
2022-12-01T02:02:09.691Z,99.90
2022-12-01T02:07:14.947Z,99.90
2022-12-01T02:12:35.749Z,99.90
2022-12-01T02:17:57.652Z,99.90
2022-12-01T02:23:36.785Z,99.90
2022-12-01T02:28:53.848Z,99.90
2022-12-01T02:34:15.891Z,99.90
2022-12-01T02:39:27.945Z,99.90
2022-12-01T02:44:35.798Z,99.90
2022-12-01T02:49:43.815Z,99.90
2022-12-01T02:54:47.123Z,99.90
2022-12-01T02:59:53.787Z,99.90
2022-12-01T03:05:11.057Z,99.90
2022-12-01T03:10:21.988Z,99.90
2022-12-01T03:16:00.864Z,99.90
2022-12-01T03:21:09.235Z,99.90
2022-12-01T03:26:16.413Z,99.90
2022-12-01T03:31:24.502Z,99.90
2022-12-01T03:36:32.488Z,99.90
2022-12-01T03:41:51.285Z,99.90
2022-12-01T03:47:23.895Z,99.90
2022-12-01T03:52:37.710Z,99.90
2022-12-01T03:57:49.007Z,99.90
2022-12-01T04:02:59.100Z,99.90
2022-12-01T04:08:01.532Z,99.90
2022-12-01T04:13:03.351Z,99.90
2022-12-01T04:18:05.383Z,99.90
2022-12-01T04:23:07.105Z,99.90
2022-12-01T04:28:08.828Z,99.90
2022-12-01T04:33:10.597Z,99.90
2022-12-01T04:38:12.347Z,99.90
2022-12-01T04:43:14.112Z,99.90
2022-12-01T04:48:15.870Z,99.90
2022-12-01T04:53:17.688Z,99.90
2022-12-01T04:58:19.481Z,99.90
2022-12-01T05:03:21.327Z,99.90
2022-12-01T05:08:23.073Z,99.90
2022-12-01T05:13:25.038Z,99.90
2022-12-01T05:18:26.869Z,99.90
2022-12-01T05:23:31.534Z,99.90
2022-12-01T05:28:33.446Z,99.90
2022-12-01T05:33:35.228Z,99.90
2022-12-01T05:38:36.997Z,99.90
2022-12-01T05:43:38.837Z,99.90
2022-12-01T05:48:40.677Z,99.90
2022-12-01T05:53:43.394Z,99.90
2022-12-01T05:58:45.285Z,99.90
2022-12-01T06:03:47.094Z,99.90
2022-12-01T06:08:48.900Z,99.90
2022-12-01T06:13:50.649Z,99.90
2022-12-01T06:18:52.435Z,99.90
2022-12-01T06:23:54.619Z,99.90
2022-12-01T06:28:56.699Z,99.90
2022-12-01T06:33:58.540Z,99.90
2022-12-01T06:39:00.319Z,99.90
2022-12-01T06:44:02.105Z,99.90
2022-12-01T06:49:04.463Z,99.90
2022-12-01T06:54:06.484Z,99.90
2022-12-01T06:59:08.277Z,99.90
2022-12-01T07:04:10.346Z,99.90
2022-12-01T07:09:12.385Z,99.90
2022-12-01T07:14:21.990Z,99.90
2022-12-01T07:19:23.864Z,99.90
2022-12-01T07:24:25.613Z,99.90
2022-12-01T07:29:27.418Z,99.90
2022-12-01T07:34:29.223Z,99.90
2022-12-01T07:39:31.058Z,99.90
2022-12-01T07:44:32.834Z,99.90
2022-12-01T07:49:34.699Z,99.90
2022-12-01T07:54:36.453Z,99.90
2022-12-01T07:59:38.179Z,99.90
2022-12-01T08:04:39.917Z,99.90
2022-12-01T08:09:41.640Z,99.90
2022-12-01T08:14:43.382Z,99.90
2022-12-01T08:19:45.117Z,99.90
2022-12-01T08:24:46.891Z,99.90
2022-12-01T08:29:48.848Z,99.90
2022-12-01T08:34:53.530Z,99.90
2022-12-01T08:39:55.645Z,99.90
2022-12-01T08:44:57.421Z,99.90
2022-12-01T08:49:59.204Z,99.90
2022-12-01T08:55:01.518Z,99.90
2022-12-01T09:00:04.015Z,99.90
2022-12-01T09:05:06.166Z,97.00
2022-12-01T09:10:08.964Z,93.80
2022-12-01T09:15:10.943Z,92.90
2022-12-01T09:20:13.074Z,93.50
2022-12-01T09:25:14.859Z,90.70
2022-12-01T09:30:17.167Z,90.80
2022-12-01T09:35:23.228Z,91.40
2022-12-01T09:40:31.823Z,94.60
2022-12-01T09:45:39.866Z,97.10
2022-12-01T09:50:43.307Z,99.40
2022-12-01T09:55:45.295Z,99.90
2022-12-01T10:00:49.464Z,99.90
2022-12-01T10:11:33.271Z,99.90
2022-12-01T10:17:05.852Z,99.90
2022-12-01T10:22:21.691Z,99.90
2022-12-01T10:27:32.978Z,99.90
2022-12-01T10:32:57.545Z,99.90
2022-12-01T10:38:03.701Z,99.90
2022-12-01T10:43:05.537Z,99.90
2022-12-01T10:48:10.672Z,99.90
2022-12-01T10:53:29.238Z,99.90
2022-12-01T10:58:34.097Z,99.90
2022-12-01T11:03:36.724Z,99.90
2022-12-01T11:08:46.447Z,99.90
2022-12-01T11:13:48.337Z,99.90
2022-12-01T11:18:50.103Z,99.90
2022-12-01T11:23:54.014Z,99.90
2022-12-01T11:29:07.920Z,99.90
2022-12-01T11:34:22.348Z,99.90
2022-12-01T11:39:33.792Z,99.90
2022-12-01T11:44:51.075Z,99.90
2022-12-01T11:49:59.941Z,99.90
2022-12-01T11:55:20.402Z,99.90
2022-12-01T12:00:26.112Z,99.90
2022-12-01T12:05:46.036Z,99.90
2022-12-01T12:11:06.677Z,99.90
2022-12-01T12:16:36.314Z,99.90
2022-12-01T12:21:48.273Z,99.90
2022-12-01T12:26:58.859Z,99.90
2022-12-01T12:32:16.002Z,99.90
2022-12-01T12:37:26.304Z,99.90
2022-12-01T12:42:49.883Z,99.90
2022-12-01T12:47:57.731Z,99.90
2022-12-01T12:53:09.999Z,99.90
2022-12-01T12:58:26.699Z,99.90
2022-12-01T13:03:51.998Z,99.90
2022-12-01T13:09:17.835Z,99.90
2022-12-01T13:14:50.970Z,99.90
2022-12-01T13:19:52.711Z,99.90
2022-12-01T13:24:54.807Z,99.90
2022-12-01T13:29:57.552Z,99.90
2022-12-01T13:35:01.481Z,99.90
2022-12-01T13:40:30.673Z,99.90
2022-12-01T13:45:36.032Z,99.90
2022-12-01T13:50:42.923Z,99.90
2022-12-01T13:55:59.688Z,99.90
2022-12-01T14:01:20.380Z,99.90
2022-12-01T14:06:48.885Z,99.90
2022-12-01T14:12:19.850Z,99.90
2022-12-01T14:17:28.030Z,99.90
2022-12-01T14:22:41.896Z,99.90
2022-12-01T14:27:43.972Z,99.90
2022-12-01T14:32:45.733Z,99.90
2022-12-01T14:37:49.623Z,99.90
2022-12-01T14:43:14.075Z,99.90
2022-12-01T14:48:21.616Z,99.90
2022-12-01T14:53:30.594Z,99.90
2022-12-01T14:58:32.429Z,99.90
2022-12-01T15:04:06.571Z,99.90
2022-12-01T15:09:33.356Z,99.90
2022-12-01T15:14:47.782Z,99.90
2022-12-01T15:19:50.158Z,99.90
2022-12-01T15:24:52.586Z,99.90
2022-12-01T15:29:55.710Z,99.90
2022-12-01T15:35:03.560Z,99.90
2022-12-01T15:40:59.525Z,99.90
2022-12-01T15:45:57.715Z,99.90
2022-12-01T15:51:15.910Z,99.90
2022-12-01T15:56:26.082Z,99.90
2022-12-01T16:01:31.308Z,99.90
2022-12-01T16:06:39.286Z,99.90
2022-12-01T16:12:01.055Z,99.90
2022-12-01T16:17:05.233Z,99.90
2022-12-01T16:22:15.730Z,99.90
2022-12-01T16:27:24.633Z,99.90
2022-12-01T16:32:43.946Z,99.90
2022-12-01T16:37:45.737Z,99.90
2022-12-01T16:42:49.828Z,99.90
2022-12-01T16:47:51.605Z,99.90
2022-12-01T16:52:53.574Z,99.90
2022-12-01T16:57:55.582Z,99.90
2022-12-01T17:02:58.380Z,99.90
2022-12-01T17:08:00.427Z,99.90
2022-12-01T17:13:02.310Z,99.90
2022-12-01T17:18:05.696Z,99.90
2022-12-01T17:23:07.715Z,99.90
2022-12-01T17:28:09.600Z,99.90
2022-12-01T17:33:11.601Z,99.90
2022-12-01T17:38:13.425Z,99.90
2022-12-01T17:43:15.364Z,99.90
2022-12-01T17:48:17.095Z,99.90
2022-12-01T17:53:19.056Z,99.90
2022-12-01T17:58:21.583Z,99.90
2022-12-01T18:03:23.384Z,99.90
2022-12-01T18:08:26.395Z,99.90
2022-12-01T18:13:28.345Z,99.90
2022-12-01T18:18:30.283Z,99.90
2022-12-01T18:23:32.123Z,99.90
2022-12-01T18:28:34.624Z,99.90
2022-12-01T18:33:38.684Z,99.90
2022-12-01T18:38:40.800Z,99.90
2022-12-01T18:43:43.431Z,99.90
2022-12-01T18:48:53.599Z,99.90
2022-12-01T18:53:57.038Z,99.90
2022-12-01T18:59:01.123Z,99.90
2022-12-01T19:04:03.732Z,99.90
2022-12-01T19:09:09.145Z,99.90
2022-12-01T19:14:15.003Z,99.90
2022-12-01T19:19:16.777Z,99.90
2022-12-01T19:24:18.698Z,99.90
2022-12-01T19:29:20.439Z,99.90
2022-12-01T19:34:22.478Z,99.90
2022-12-01T19:39:24.331Z,99.90
2022-12-01T19:44:27.587Z,99.90
2022-12-01T19:49:29.437Z,99.90
2022-12-01T19:54:32.886Z,99.90
2022-12-01T19:59:34.695Z,99.90
2022-12-01T20:04:38.545Z,99.90
2022-12-01T20:09:42.409Z,99.90
2022-12-01T20:14:47.435Z,99.90
2022-12-01T20:19:49.218Z,99.90
2022-12-01T20:24:51.160Z,99.90
2022-12-01T20:29:53.377Z,99.90
2022-12-01T20:34:55.157Z,99.90
2022-12-01T20:39:57.733Z,99.90
2022-12-01T20:44:59.490Z,99.90
2022-12-01T20:50:01.229Z,99.90
2022-12-01T20:55:03.107Z,99.90
2022-12-01T21:00:05.985Z,99.90
2022-12-01T21:05:07.883Z,99.90
2022-12-01T21:10:09.797Z,99.90
2022-12-01T21:15:24.689Z,99.90
2022-12-01T21:20:30.969Z,99.90
2022-12-01T21:25:33.495Z,99.90
2022-12-01T21:30:35.303Z,99.90
2022-12-01T21:35:37.058Z,99.90
2022-12-01T21:40:43.004Z,99.90
2022-12-01T21:45:45.624Z,99.90
2022-12-01T21:50:52.389Z,99.90
2022-12-01T21:55:56.586Z,99.90
2022-12-01T22:00:59.356Z,99.90
2022-12-01T22:06:29.759Z,99.90
2022-12-01T22:11:32.295Z,99.90
2022-12-01T22:16:36.348Z,99.90
2022-12-01T22:21:47.693Z,99.90
2022-12-01T22:27:05.981Z,99.90
2022-12-01T22:32:13.677Z,99.90
2022-12-01T22:37:43.495Z,99.90
2022-12-01T22:42:45.340Z,99.90
2022-12-01T22:47:47.068Z,99.90
2022-12-01T22:52:50.805Z,99.90
2022-12-01T22:57:52.657Z,99.90
2022-12-01T23:02:56.160Z,99.90
2022-12-01T23:07:58.158Z,99.90
2022-12-01T23:13:08.842Z,99.90
2022-12-01T23:18:29.336Z,99.90
2022-12-01T23:23:37.011Z,99.90
2022-12-01T23:28:41.303Z,99.90
2022-12-01T23:33:43.109Z,99.90
2022-12-01T23:38:47.354Z,99.90
2022-12-01T23:43:49.796Z,99.90
2022-12-01T23:49:03.549Z,99.90
2022-12-01T23:54:17.836Z,99.90
2022-12-01T23:59:20.449Z,99.90
